createdAt,value
2018-08-13T00:01:48.454Z,81.25
2018-08-13T00:04:19.268Z,81.17
2018-08-13T00:06:50.033Z,81.17
2018-08-13T00:09:25.865Z,80.84
2018-08-13T00:11:56.612Z,80.97
2018-08-13T00:14:27.402Z,80.34
2018-08-13T00:16:58.168Z,79.56
2018-08-13T00:19:29.035Z,79.22
2018-08-13T00:21:59.840Z,80.14
2018-08-13T00:24:30.643Z,81.26
2018-08-13T00:27:01.394Z,81.85
2018-08-13T00:29:32.316Z,82.97
2018-08-13T00:32:03.152Z,84.44
2018-08-13T00:34:33.038Z,84.56
2018-08-13T00:37:02.849Z,84.32
2018-08-13T00:39:33.509Z,86.19
2018-08-13T00:42:03.213Z,86.36
2018-08-13T00:44:32.868Z,84.94
2018-08-13T00:47:02.913Z,84.46
2018-08-13T00:49:32.579Z,84.51
2018-08-13T00:52:02.311Z,84.04
2018-08-13T00:54:37.406Z,83.45
2018-08-13T00:57:07.448Z,83.13
2018-08-13T00:59:37.312Z,82.10
2018-08-13T01:02:07.016Z,82.22
2018-08-13T01:04:36.945Z,81.89
2018-08-13T01:07:07.001Z,81.69
2018-08-13T01:09:36.695Z,80.64
2018-08-13T01:12:06.538Z,79.49
2018-08-13T01:14:36.194Z,79.13
2018-08-13T01:17:06.042Z,78.43
2018-08-13T01:19:35.768Z,78.05
2018-08-13T01:22:05.805Z,79.48
2018-08-13T01:24:35.523Z,80.87
2018-08-13T01:27:05.194Z,83.10
2018-08-13T01:29:34.854Z,84.58
2018-08-13T01:32:04.530Z,84.25
2018-08-13T01:34:34.168Z,83.97
2018-08-13T01:37:03.901Z,84.43
2018-08-13T01:39:33.646Z,84.19
2018-08-13T01:42:08.444Z,83.87
2018-08-13T01:44:38.912Z,84.46
2018-08-13T01:47:08.570Z,84.90
2018-08-13T01:49:38.221Z,85.00
2018-08-13T01:52:07.944Z,84.90
2018-08-13T01:54:37.607Z,84.96
2018-08-13T01:57:07.362Z,84.90
2018-08-13T01:59:37.419Z,83.88
2018-08-13T02:02:07.187Z,83.30
2018-08-13T02:04:36.843Z,83.51
2018-08-13T02:07:06.844Z,85.34
2018-08-13T02:09:39.099Z,85.50
2018-08-13T02:12:13.949Z,85.10
2018-08-13T02:14:43.606Z,83.93
2018-08-13T02:17:13.284Z,84.67
2018-08-13T02:19:43.070Z,84.85
2018-08-13T02:22:12.773Z,85.34
2018-08-13T02:24:42.421Z,85.54
2018-08-13T02:27:12.184Z,84.25
2018-08-13T02:29:41.830Z,83.44
2018-08-13T02:32:11.492Z,85.01
2018-08-13T02:34:41.186Z,85.16
2018-08-13T02:37:10.839Z,85.83
2018-08-13T02:39:40.496Z,85.56
2018-08-13T02:42:10.285Z,84.20
2018-08-13T02:44:39.923Z,82.68
2018-08-13T02:47:09.658Z,82.96
2018-08-13T02:49:39.428Z,83.00
2018-08-13T02:52:09.140Z,83.00
2018-08-13T02:54:38.780Z,83.81
2018-08-13T02:57:10.364Z,85.04
2018-08-13T02:59:40.084Z,86.02
2018-08-13T03:02:09.772Z,86.30
2018-08-13T03:04:39.569Z,87.74
2018-08-13T03:07:09.475Z,87.87
2018-08-13T03:09:39.153Z,88.58
2018-08-13T03:12:08.872Z,88.01
2018-08-13T03:14:38.528Z,88.57
2018-08-13T03:17:08.220Z,89.29
2018-08-13T03:19:41.301Z,87.86
2018-08-13T03:22:10.936Z,88.63
2018-08-13T03:24:40.610Z,88.02
2018-08-13T03:27:10.297Z,88.41
2018-08-13T03:29:40.324Z,86.63
2018-08-13T03:32:09.999Z,87.44
2018-08-13T03:34:40.124Z,86.45
2018-08-13T03:37:09.913Z,85.39
2018-08-13T03:39:39.568Z,85.13
2018-08-13T03:42:09.302Z,84.22
2018-08-13T03:44:41.875Z,83.95
2018-08-13T03:47:11.603Z,86.75
2018-08-13T03:49:41.244Z,87.32
2018-08-13T03:52:11.578Z,85.97
2018-08-13T03:54:41.683Z,85.43
2018-08-13T03:57:12.242Z,87.68
2018-08-13T03:59:42.516Z,89.27
2018-08-13T04:02:12.172Z,88.47
2018-08-13T04:04:41.844Z,87.87
2018-08-13T04:07:11.544Z,86.96
2018-08-13T04:09:43.469Z,88.30
2018-08-13T04:12:14.230Z,86.79
2018-08-13T04:14:43.859Z,85.39
2018-08-13T04:17:13.510Z,84.99
2018-08-13T04:19:43.247Z,85.19
2018-08-13T04:22:12.880Z,84.77
2018-08-13T04:24:42.520Z,84.63
2018-08-13T04:27:12.213Z,82.97
2018-08-13T04:29:41.853Z,81.68
2018-08-13T04:32:11.512Z,81.58
2018-08-13T04:34:42.083Z,80.53
2018-08-13T04:37:11.727Z,79.23
2018-08-13T04:39:41.390Z,78.42
2018-08-13T04:42:11.203Z,77.06
2018-08-13T04:44:40.862Z,76.46
2018-08-13T04:47:10.512Z,76.19
2018-08-13T04:49:40.185Z,75.39
2018-08-13T04:52:09.891Z,76.80
2018-08-13T04:54:39.845Z,77.92
2018-08-13T04:57:09.542Z,78.63
2018-08-13T04:59:39.267Z,78.53
2018-08-13T05:02:08.998Z,78.09
2018-08-13T05:04:38.733Z,75.88
2018-08-13T05:07:08.396Z,74.54
2018-08-13T05:09:38.064Z,74.18
2018-08-13T05:12:07.731Z,74.90
2018-08-13T05:14:37.388Z,74.73
2018-08-13T05:17:07.098Z,75.92
2018-08-13T05:19:36.779Z,74.70
2018-08-13T05:22:06.834Z,74.21
2018-08-13T05:24:36.559Z,74.69
2018-08-13T05:27:06.674Z,72.80
2018-08-13T05:29:36.713Z,71.74
2018-08-13T05:32:06.397Z,71.73
2018-08-13T05:34:36.497Z,71.37
2018-08-13T05:37:06.159Z,69.37
2018-08-13T05:39:35.820Z,69.16
2018-08-13T05:42:05.571Z,68.08
2018-08-13T05:44:35.257Z,66.47
2018-08-13T05:47:04.976Z,66.69
2018-08-13T05:49:34.754Z,64.98
2018-08-13T05:52:04.540Z,65.03
2018-08-13T05:54:34.176Z,64.83
2018-08-13T05:57:03.858Z,63.66
2018-08-13T05:59:33.519Z,64.53
2018-08-13T06:02:03.856Z,63.88
2018-08-13T06:04:33.541Z,63.78
2018-08-13T06:07:03.576Z,62.18
2018-08-13T06:09:33.233Z,59.47
2018-08-13T06:12:03.120Z,59.45
2018-08-13T06:14:32.781Z,58.38
2018-08-13T06:17:02.446Z,57.16
2018-08-13T06:19:32.592Z,55.64
2018-08-13T06:22:02.292Z,55.81
2018-08-13T06:24:32.053Z,54.61
2018-08-13T06:27:01.737Z,54.29
2018-08-13T06:29:32.330Z,54.24
2018-08-13T06:32:02.182Z,51.91
2018-08-13T06:34:31.917Z,52.26
2018-08-13T06:37:01.927Z,52.52
2018-08-13T06:39:31.602Z,51.53
2018-08-13T06:42:01.310Z,51.44
2018-08-13T06:44:31.190Z,50.61
2018-08-13T06:47:00.903Z,50.35
2018-08-13T06:49:30.628Z,51.01
2018-08-13T06:52:00.294Z,51.90
2018-08-13T06:54:30.048Z,52.56
2018-08-13T06:56:59.764Z,52.45
2018-08-13T06:59:29.429Z,51.39
2018-08-13T07:01:59.078Z,50.85
2018-08-13T07:04:29.250Z,50.19
2018-08-13T07:06:58.890Z,50.92
2018-08-13T07:09:29.149Z,51.41
2018-08-13T07:11:59.128Z,50.71
2018-08-13T07:14:28.808Z,50.58
2018-08-13T07:16:58.532Z,48.86
2018-08-13T07:19:28.350Z,48.57
2018-08-13T07:21:58.093Z,47.17
2018-08-13T07:24:28.076Z,47.85
2018-08-13T07:27:01.266Z,47.37
2018-08-13T07:29:30.947Z,46.27
2018-08-13T07:32:00.997Z,45.43
2018-08-13T07:34:30.951Z,46.33
2018-08-13T07:37:00.614Z,46.41
2018-08-13T07:39:30.411Z,46.07
2018-08-13T07:42:00.257Z,46.31
2018-08-13T07:44:29.945Z,46.63
2018-08-13T07:46:59.589Z,46.36
2018-08-13T07:49:29.292Z,45.48
2018-08-13T07:51:58.936Z,46.24
2018-08-13T07:54:28.657Z,45.62
2018-08-13T07:56:58.427Z,44.83
2018-08-13T07:59:28.090Z,43.22
2018-08-13T08:01:57.732Z,44.60
2018-08-13T08:04:27.830Z,44.26
2018-08-13T08:06:57.599Z,43.13
2018-08-13T08:09:27.248Z,41.29
2018-08-13T08:11:56.955Z,41.70
2018-08-13T08:14:26.731Z,42.08
2018-08-13T08:16:56.396Z,41.91
2018-08-13T08:19:26.919Z,41.00
2018-08-13T08:21:56.588Z,38.71
2018-08-13T08:24:26.319Z,39.78
2018-08-13T08:26:56.072Z,40.09
2018-08-13T08:29:25.853Z,40.13
2018-08-13T08:31:55.605Z,39.83
2018-08-13T08:34:25.301Z,39.14
2018-08-13T08:36:55.173Z,38.66
2018-08-13T08:39:24.829Z,38.09
2018-08-13T08:41:54.620Z,38.45
2018-08-13T08:44:24.327Z,38.38
2018-08-13T08:46:54.011Z,37.37
2018-08-13T08:49:23.700Z,36.82
2018-08-13T08:51:53.357Z,36.51
2018-08-13T08:54:23.053Z,35.97
2018-08-13T08:56:52.772Z,35.79
2018-08-13T08:59:22.462Z,36.13
2018-08-13T09:01:52.109Z,35.67
2018-08-13T09:04:21.867Z,35.33
2018-08-13T09:06:51.532Z,36.13
2018-08-13T09:09:21.255Z,35.59
2018-08-13T09:11:55.304Z,35.89
2018-08-13T09:14:25.389Z,36.03
2018-08-13T09:16:55.438Z,35.38
2018-08-13T09:19:30.442Z,36.19
2018-08-13T09:22:11.397Z,34.11
2018-08-13T09:24:46.620Z,33.10
2018-08-13T09:27:21.577Z,36.24
2018-08-13T09:29:56.627Z,35.05
2018-08-13T09:32:33.907Z,33.87
2018-08-13T09:35:11.344Z,32.81
2018-08-13T09:37:41.042Z,31.32
2018-08-13T09:40:10.976Z,31.90
2018-08-13T09:42:41.157Z,31.97
2018-08-13T09:45:11.200Z,31.50
2018-08-13T09:47:41.664Z,31.32
2018-08-13T09:50:12.646Z,31.40
2018-08-13T09:52:42.942Z,31.77
2018-08-13T09:55:13.447Z,32.72
2018-08-13T09:57:44.042Z,31.86
2018-08-13T10:00:19.643Z,31.26
2018-08-13T10:02:49.958Z,30.40
2018-08-13T10:05:20.068Z,30.26
2018-08-13T10:07:49.721Z,27.89
2018-08-13T10:10:19.521Z,28.45
2018-08-13T10:12:49.394Z,28.94
2018-08-13T10:15:19.436Z,28.74
2018-08-13T10:17:49.089Z,29.01
2018-08-13T10:20:20.016Z,28.16
2018-08-13T10:22:49.766Z,27.50
2018-08-13T10:25:19.452Z,27.64
2018-08-13T10:27:49.532Z,27.69
2018-08-13T10:30:19.175Z,27.34
2018-08-13T10:32:48.852Z,26.25
2018-08-13T10:35:18.556Z,25.13
2018-08-13T10:37:48.221Z,25.96
2018-08-13T10:40:19.120Z,26.11
2018-08-13T10:42:49.103Z,25.61
2018-08-13T10:45:18.823Z,26.16
2018-08-13T10:47:48.548Z,25.25
2018-08-13T10:50:18.199Z,23.64
2018-08-13T10:52:47.895Z,24.64
2018-08-13T10:55:17.665Z,25.61
2018-08-13T10:57:47.344Z,23.05
2018-08-13T11:00:17.202Z,23.87
2018-08-13T11:02:47.156Z,22.92
2018-08-13T11:05:17.141Z,22.69
2018-08-13T11:07:46.984Z,22.29
2018-08-13T11:10:16.956Z,22.84
2018-08-13T11:12:48.520Z,19.99
2018-08-13T11:15:19.480Z,20.44
2018-08-13T11:17:49.169Z,20.91
2018-08-13T11:20:18.832Z,21.18
2018-08-13T11:22:48.642Z,20.58
2018-08-13T11:25:18.435Z,21.13
2018-08-13T11:27:48.258Z,22.15
2018-08-13T11:30:18.102Z,22.23
2018-08-13T11:32:48.182Z,21.06
2018-08-13T11:35:17.852Z,20.36
2018-08-13T11:37:47.611Z,20.97
2018-08-13T11:40:18.140Z,22.11
2018-08-13T11:42:47.836Z,21.00
2018-08-13T11:45:17.593Z,21.38
2018-08-13T11:47:47.275Z,21.70
2018-08-13T11:50:18.216Z,21.42
2018-08-13T11:52:49.023Z,20.72
2018-08-13T11:55:19.317Z,20.27
2018-08-13T11:57:50.073Z,22.36
2018-08-13T12:00:19.842Z,23.12
2018-08-13T12:02:49.772Z,23.48
2018-08-13T12:05:19.485Z,23.17
2018-08-13T12:07:49.564Z,22.57
2018-08-13T12:10:19.323Z,22.27
2018-08-13T12:12:49.130Z,21.41
2018-08-13T12:15:18.918Z,21.46
2018-08-13T12:17:48.660Z,20.30
2018-08-13T12:20:19.541Z,20.62
2018-08-13T12:22:49.379Z,20.39
2018-08-13T12:25:21.797Z,20.25
2018-08-13T12:27:51.658Z,20.33
2018-08-13T12:30:21.538Z,20.69
2018-08-13T12:32:51.452Z,20.00
2018-08-13T12:35:21.298Z,17.84
2018-08-13T12:37:51.375Z,19.85
2018-08-13T12:40:21.156Z,18.57
2018-08-13T12:42:50.887Z,18.19
2018-08-13T12:45:20.552Z,19.95
2018-08-13T12:47:55.995Z,20.80
2018-08-13T12:50:25.709Z,20.30
2018-08-13T12:52:55.376Z,19.71
2018-08-13T12:55:25.099Z,19.66
2018-08-13T12:57:54.847Z,20.42
2018-08-13T13:00:24.525Z,22.21
2018-08-13T13:02:54.416Z,23.59
2018-08-13T13:05:24.127Z,22.40
2018-08-13T13:07:53.845Z,18.33
2018-08-13T13:10:23.597Z,19.19
2018-08-13T13:12:53.342Z,18.92
2018-08-13T13:15:23.025Z,19.37
2018-08-13T13:17:53.105Z,19.81
2018-08-13T13:20:23.867Z,19.97
2018-08-13T13:22:53.725Z,18.95
2018-08-13T13:25:23.433Z,16.60
2018-08-13T13:27:53.107Z,22.19
2018-08-13T13:30:22.805Z,22.37
2018-08-13T13:32:52.963Z,20.95
2018-08-13T13:35:22.655Z,20.62
2018-08-13T13:37:52.322Z,21.37
2018-08-13T13:40:22.059Z,20.08
2018-08-13T13:42:54.639Z,21.21
2018-08-13T13:45:24.721Z,21.12
2018-08-13T13:47:54.433Z,21.42
2018-08-13T13:50:24.116Z,20.91
2018-08-13T13:52:54.230Z,21.02
2018-08-13T13:55:23.925Z,21.02
2018-08-13T13:57:53.590Z,20.01
2018-08-13T14:00:25.821Z,20.11
2018-08-13T14:02:55.462Z,20.25
2018-08-13T14:05:26.425Z,19.22
2018-08-13T14:07:57.219Z,18.61
2018-08-13T14:10:28.187Z,19.33
2018-08-13T14:12:59.083Z,19.18
2018-08-13T14:15:29.936Z,18.31
2018-08-13T14:18:00.757Z,18.26
2018-08-13T14:20:31.591Z,18.87
2018-08-13T14:23:02.458Z,18.19
2018-08-13T14:25:36.044Z,18.77
2018-08-13T14:28:07.295Z,18.43
2018-08-13T14:30:38.623Z,19.15
2018-08-13T14:33:09.443Z,19.73
2018-08-13T14:35:40.274Z,18.03
2018-08-13T14:38:11.148Z,18.71
2018-08-13T14:40:42.277Z,18.30
2018-08-13T14:43:13.128Z,18.80
2018-08-13T14:45:44.307Z,18.00
2018-08-13T14:48:15.097Z,17.94
2018-08-13T14:50:45.947Z,17.50
2018-08-13T14:53:16.791Z,16.72
2018-08-13T14:55:47.690Z,17.07
2018-08-13T14:58:18.553Z,17.00
2018-08-13T15:00:49.818Z,15.75
2018-08-13T15:03:20.630Z,16.44
2018-08-13T15:05:51.453Z,15.58
2018-08-13T15:08:22.432Z,16.28
2018-08-13T15:18:04.388Z,17.29
2018-08-13T15:20:35.207Z,19.18
2018-08-13T15:23:06.117Z,20.53
2018-08-13T15:25:37.020Z,22.51
2018-08-13T15:28:08.523Z,22.16
2018-08-13T15:30:39.362Z,22.77
2018-08-13T15:33:10.539Z,22.39
2018-08-13T15:35:41.342Z,22.01
2018-08-13T15:38:15.066Z,22.10
2018-08-13T15:40:45.916Z,23.94
2018-08-13T15:43:16.799Z,24.34
2018-08-13T15:45:47.584Z,23.80
2018-08-13T15:48:18.402Z,23.85
2018-08-13T15:50:49.177Z,24.33
2018-08-13T15:53:20.001Z,25.65
2018-08-13T15:55:50.805Z,24.75
2018-08-13T15:58:21.681Z,25.20
2018-08-13T16:00:52.883Z,26.36
2018-08-13T16:03:24.218Z,25.55
2018-08-13T16:05:55.034Z,26.41
2018-08-13T16:08:25.999Z,26.83
2018-08-13T16:10:56.780Z,28.15
2018-08-13T16:13:27.702Z,28.45
2018-08-13T16:15:58.607Z,28.34
2018-08-13T16:18:33.316Z,28.71
2018-08-13T16:21:04.154Z,29.54
2018-08-13T16:23:34.992Z,29.30
2018-08-13T16:26:05.892Z,29.92
2018-08-13T16:28:36.761Z,29.78
2018-08-13T16:31:07.589Z,30.31
2018-08-13T16:33:38.426Z,31.22
2018-08-13T16:36:09.526Z,31.08
2018-08-13T16:38:40.369Z,31.38
2018-08-13T16:41:11.154Z,32.01
2018-08-13T16:43:41.964Z,32.01
2018-08-13T16:46:12.807Z,31.88
2018-08-13T16:48:43.629Z,32.30
2018-08-13T16:51:14.798Z,32.63
2018-08-13T16:53:57.356Z,33.14
2018-08-13T16:56:28.151Z,33.13
2018-08-13T16:58:59.172Z,33.35
2018-08-13T17:01:30.135Z,33.65
2018-08-13T17:04:00.981Z,33.60
2018-08-13T17:06:31.797Z,33.92
2018-08-13T17:09:03.168Z,33.35
2018-08-13T17:11:34.761Z,34.21
2018-08-13T17:14:10.173Z,35.91
2018-08-13T17:16:43.223Z,36.89
2018-08-13T17:19:14.192Z,37.34
2018-08-13T17:21:45.132Z,37.63
2018-08-13T17:24:16.724Z,38.90
2018-08-13T17:26:47.945Z,38.88
2018-08-13T17:29:18.873Z,39.21
2018-08-13T17:31:49.704Z,38.88
2018-08-13T17:34:20.563Z,39.43
2018-08-13T17:36:51.440Z,40.82
2018-08-13T17:39:22.401Z,41.29
2018-08-13T17:41:53.629Z,42.33
2018-08-13T17:44:24.853Z,42.32
2018-08-13T17:46:55.679Z,43.24
2018-08-13T17:49:26.550Z,43.62
2018-08-13T17:51:57.388Z,42.49
2018-08-13T17:54:28.254Z,43.90
2018-08-13T17:56:59.146Z,44.05
2018-08-13T17:59:30.149Z,44.75
2018-08-13T18:02:01.454Z,43.98
2018-08-13T18:04:32.341Z,44.95
2018-08-13T18:07:03.312Z,44.88
2018-08-13T18:09:34.204Z,45.64
2018-08-13T18:12:06.266Z,46.07
2018-08-13T18:14:37.310Z,46.90
2018-08-13T18:17:08.533Z,46.66
2018-08-13T18:19:39.578Z,45.62
2018-08-13T18:22:10.858Z,47.29
2018-08-13T18:24:41.748Z,47.61
2018-08-13T18:27:12.625Z,49.10
2018-08-13T18:29:43.532Z,48.32
2018-08-13T18:32:14.445Z,49.46
2018-08-13T18:34:51.934Z,49.47
2018-08-13T18:37:24.163Z,50.12
2018-08-13T18:39:56.299Z,50.04
2018-08-13T18:42:28.281Z,50.47
2018-08-13T18:48:11.063Z,49.99
2018-08-13T18:50:43.711Z,50.21
2018-08-13T18:53:16.472Z,50.60
2018-08-13T18:55:47.401Z,49.35
2018-08-13T18:58:18.185Z,48.70
2018-08-13T19:00:53.523Z,48.08
2018-08-13T19:03:24.523Z,47.59
2018-08-13T19:06:07.615Z,48.98
2018-08-13T19:08:38.428Z,48.89
2018-08-13T19:11:09.453Z,48.41
2018-08-13T19:13:40.305Z,48.83
2018-08-13T19:16:11.188Z,49.67
2018-08-13T19:18:48.287Z,50.03
2018-08-13T19:21:19.181Z,50.68
2018-08-13T19:23:50.097Z,51.41
2018-08-13T19:26:20.920Z,51.77
2018-08-13T19:28:52.328Z,53.81
2018-08-13T19:31:23.180Z,55.69
2018-08-13T19:33:54.403Z,56.27
2018-08-13T19:36:25.446Z,56.79
2018-08-13T19:38:57.031Z,57.40
2018-08-13T19:41:27.896Z,57.15
2018-08-13T19:43:58.785Z,56.44
2018-08-13T19:46:32.933Z,56.17
2018-08-13T19:49:14.668Z,56.36
2018-08-13T19:51:46.628Z,56.22
2018-08-13T19:54:18.184Z,55.11
2018-08-13T19:56:49.034Z,55.37
2018-08-13T19:59:25.481Z,56.33
2018-08-13T20:02:01.661Z,56.36
2018-08-13T20:04:37.343Z,56.91
2018-08-13T20:07:14.100Z,57.60
2018-08-13T20:09:49.883Z,57.79
2018-08-13T20:12:25.818Z,57.83
2018-08-13T20:15:01.607Z,58.55
2018-08-13T20:17:37.653Z,58.47
2018-08-13T20:20:16.124Z,58.02
2018-08-13T20:22:52.198Z,58.75
2018-08-13T20:25:28.462Z,58.71
2018-08-13T20:28:04.489Z,59.58
2018-08-13T20:30:40.427Z,59.73
2018-08-13T20:33:16.320Z,60.29
2018-08-13T20:35:52.093Z,59.67
2018-08-13T20:38:28.050Z,60.00
2018-08-13T20:41:03.938Z,60.14
2018-08-13T20:43:39.865Z,60.77
2018-08-13T20:46:15.664Z,62.26
2018-08-13T20:48:51.574Z,63.52
2018-08-13T20:51:27.836Z,64.99
2018-08-13T20:54:04.193Z,65.86
2018-08-13T20:56:40.019Z,66.73
2018-08-13T20:59:15.912Z,66.45
2018-08-13T21:01:52.166Z,66.28
2018-08-13T21:04:28.038Z,66.04
2018-08-13T21:07:03.860Z,65.93
2018-08-13T21:09:39.857Z,65.77
2018-08-13T21:12:15.698Z,65.23
2018-08-13T21:14:51.564Z,64.49
2018-08-13T21:17:27.370Z,63.34
2018-08-13T21:20:03.225Z,64.42
2018-08-13T21:22:39.350Z,64.41
2018-08-13T21:25:15.350Z,64.78
2018-08-13T21:27:51.568Z,66.35
2018-08-13T21:30:27.740Z,67.37
2018-08-13T21:33:03.691Z,67.83
2018-08-13T21:35:39.481Z,68.33
2018-08-13T21:38:15.538Z,68.44
2018-08-13T21:40:51.473Z,68.36
2018-08-13T21:43:28.949Z,67.29
2018-08-13T21:46:04.793Z,67.64
2018-08-13T21:48:40.528Z,67.40
2018-08-13T21:51:17.081Z,69.15
2018-08-13T21:53:52.707Z,69.19
2018-08-13T21:56:28.473Z,69.32
2018-08-13T21:59:04.332Z,69.77
2018-08-13T22:01:45.600Z,69.66
2018-08-13T22:04:21.379Z,69.58
2018-08-13T22:06:57.176Z,69.75
2018-08-13T22:09:33.985Z,69.38
2018-08-13T22:12:14.938Z,70.32
2018-08-13T22:14:50.965Z,70.14
2018-08-13T22:17:26.935Z,69.97
2018-08-13T22:20:02.876Z,69.89
2018-08-13T22:22:38.822Z,71.38
2018-08-13T22:25:17.000Z,73.72
2018-08-13T22:27:53.172Z,75.34
2018-08-13T22:30:29.897Z,76.10
2018-08-13T22:33:06.316Z,76.70
2018-08-13T22:35:42.484Z,76.70
2018-08-13T22:38:18.649Z,76.15
2018-08-13T22:40:54.653Z,75.34
2018-08-13T22:43:30.716Z,74.91
2018-08-13T22:46:06.921Z,73.85
2018-08-13T22:48:43.134Z,72.93
2018-08-13T22:51:19.065Z,72.37
2018-08-13T22:53:55.322Z,71.91
2018-08-13T22:56:31.105Z,70.72
2018-08-13T22:59:06.887Z,72.03
2018-08-13T23:01:42.785Z,72.04
2018-08-13T23:04:18.648Z,71.83
2018-08-13T23:06:54.576Z,72.68
2018-08-13T23:09:30.422Z,74.46
2018-08-13T23:12:09.828Z,75.17
2018-08-13T23:14:46.468Z,75.28
2018-08-13T23:17:22.289Z,77.15
2018-08-13T23:19:58.097Z,76.94
2018-08-13T23:22:44.544Z,76.90
2018-08-13T23:25:20.731Z,75.71
2018-08-13T23:27:57.691Z,75.50
2018-08-13T23:30:34.037Z,74.88
2018-08-13T23:33:10.179Z,73.94
2018-08-13T23:35:46.101Z,73.46
2018-08-13T23:38:22.134Z,73.35
2018-08-13T23:40:58.113Z,73.44
2018-08-13T23:43:34.430Z,75.34
2018-08-13T23:46:10.592Z,76.46
2018-08-13T23:48:46.784Z,77.24
2018-08-13T23:51:22.767Z,77.88
2018-08-13T23:53:59.637Z,77.65
2018-08-13T23:56:35.848Z,76.78
2018-08-13T23:59:11.670Z,75.51
